sensor_id;sensor_type;location;lat;lon;timestamp;temperature;humidity
55135;DHT22;41031;44.750;11.308;2023-07-02T00:00:48;22.60;91.80
55135;DHT22;41031;44.750;11.308;2023-07-02T00:03:18;22.60;91.80
55135;DHT22;41031;44.750;11.308;2023-07-02T00:05:49;22.60;91.80
55135;DHT22;41031;44.750;11.308;2023-07-02T00:08:17;22.70;91.70
55135;DHT22;41031;44.750;11.308;2023-07-02T00:10:44;22.70;91.50
55135;DHT22;41031;44.750;11.308;2023-07-02T00:13:12;22.60;91.30
55135;DHT22;41031;44.750;11.308;2023-07-02T00:15:41;22.60;91.30
55135;DHT22;41031;44.750;11.308;2023-07-02T00:18:08;22.50;91.40
55135;DHT22;41031;44.750;11.308;2023-07-02T00:20:35;22.50;91.60
55135;DHT22;41031;44.750;11.308;2023-07-02T00:23:04;22.40;91.70
55135;DHT22;41031;44.750;11.308;2023-07-02T00:25:33;22.40;91.80
55135;DHT22;41031;44.750;11.308;2023-07-02T00:28:00;22.40;91.80
55135;DHT22;41031;44.750;11.308;2023-07-02T00:30:27;22.40;91.90
55135;DHT22;41031;44.750;11.308;2023-07-02T00:32:54;22.40;91.90
55135;DHT22;41031;44.750;11.308;2023-07-02T00:35:22;22.40;91.90
55135;DHT22;41031;44.750;11.308;2023-07-02T00:37:49;22.40;91.90
55135;DHT22;41031;44.750;11.308;2023-07-02T00:40:17;22.30;91.90
55135;DHT22;41031;44.750;11.308;2023-07-02T00:42:44;22.30;92.00
55135;DHT22;41031;44.750;11.308;2023-07-02T00:45:11;22.30;91.90
55135;DHT22;41031;44.750;11.308;2023-07-02T00:47:38;22.20;91.70
55135;DHT22;41031;44.750;11.308;2023-07-02T00:50:06;22.20;91.70
55135;DHT22;41031;44.750;11.308;2023-07-02T00:52:37;22.20;91.80
55135;DHT22;41031;44.750;11.308;2023-07-02T00:55:04;22.10;91.80
55135;DHT22;41031;44.750;11.308;2023-07-02T00:57:32;22.10;91.70
55135;DHT22;41031;44.750;11.308;2023-07-02T00:59:59;22.00;91.80
55135;DHT22;41031;44.750;11.308;2023-07-02T01:02:30;22.00;92.00
55135;DHT22;41031;44.750;11.308;2023-07-02T01:04:57;21.90;92.00
55135;DHT22;41031;44.750;11.308;2023-07-02T01:07:27;21.90;92.10
55135;DHT22;41031;44.750;11.308;2023-07-02T01:09:55;21.80;92.10
55135;DHT22;41031;44.750;11.308;2023-07-02T01:12:24;21.80;92.10
55135;DHT22;41031;44.750;11.308;2023-07-02T01:14:57;21.70;92.20
55135;DHT22;41031;44.750;11.308;2023-07-02T01:17:27;21.70;92.30
55135;DHT22;41031;44.750;11.308;2023-07-02T01:19:56;21.70;92.40
55135;DHT22;41031;44.750;11.308;2023-07-02T01:22:27;21.70;92.40
55135;DHT22;41031;44.750;11.308;2023-07-02T01:24:55;21.70;92.30
55135;DHT22;41031;44.750;11.308;2023-07-02T01:27:23;21.60;92.30
55135;DHT22;41031;44.750;11.308;2023-07-02T01:29:53;21.60;92.40
55135;DHT22;41031;44.750;11.308;2023-07-02T01:32:20;21.50;92.40
55135;DHT22;41031;44.750;11.308;2023-07-02T01:34:50;21.50;92.40
55135;DHT22;41031;44.750;11.308;2023-07-02T01:37:21;21.50;92.40
55135;DHT22;41031;44.750;11.308;2023-07-02T01:39:48;21.50;92.50
55135;DHT22;41031;44.750;11.308;2023-07-02T01:42:17;21.50;92.50
55135;DHT22;41031;44.750;11.308;2023-07-02T01:44:45;21.50;92.80
55135;DHT22;41031;44.750;11.308;2023-07-02T01:47:13;21.40;92.40
55135;DHT22;41031;44.750;11.308;2023-07-02T01:49:43;21.40;92.40
55135;DHT22;41031;44.750;11.308;2023-07-02T01:52:10;21.50;92.50
55135;DHT22;41031;44.750;11.308;2023-07-02T01:54:37;21.50;92.60
55135;DHT22;41031;44.750;11.308;2023-07-02T01:57:04;21.50;92.60
55135;DHT22;41031;44.750;11.308;2023-07-02T01:59:34;21.50;92.70
55135;DHT22;41031;44.750;11.308;2023-07-02T02:02:01;21.50;92.80
55135;DHT22;41031;44.750;11.308;2023-07-02T02:04:29;21.40;92.80
55135;DHT22;41031;44.750;11.308;2023-07-02T02:06:56;21.50;92.90
55135;DHT22;41031;44.750;11.308;2023-07-02T02:09:23;21.40;92.70
55135;DHT22;41031;44.750;11.308;2023-07-02T02:11:50;21.40;92.60
55135;DHT22;41031;44.750;11.308;2023-07-02T02:14:19;21.40;92.80
55135;DHT22;41031;44.750;11.308;2023-07-02T02:16:46;21.30;92.90
55135;DHT22;41031;44.750;11.308;2023-07-02T02:19:14;21.30;92.80
55135;DHT22;41031;44.750;11.308;2023-07-02T02:21:42;21.30;93.00
55135;DHT22;41031;44.750;11.308;2023-07-02T02:24:10;21.20;93.10
55135;DHT22;41031;44.750;11.308;2023-07-02T02:26:37;21.20;93.30
55135;DHT22;41031;44.750;11.308;2023-07-02T02:29:07;21.20;93.40
55135;DHT22;41031;44.750;11.308;2023-07-02T02:31:35;21.20;93.40
55135;DHT22;41031;44.750;11.308;2023-07-02T02:34:03;21.20;93.40
55135;DHT22;41031;44.750;11.308;2023-07-02T02:36:30;21.20;93.70
55135;DHT22;41031;44.750;11.308;2023-07-02T02:39:02;21.20;93.40
55135;DHT22;41031;44.750;11.308;2023-07-02T02:41:30;21.10;93.30
55135;DHT22;41031;44.750;11.308;2023-07-02T02:43:57;21.20;93.30
55135;DHT22;41031;44.750;11.308;2023-07-02T02:46:24;21.20;93.20
55135;DHT22;41031;44.750;11.308;2023-07-02T02:48:52;21.20;93.30
55135;DHT22;41031;44.750;11.308;2023-07-02T02:51:20;21.10;93.40
55135;DHT22;41031;44.750;11.308;2023-07-02T02:53:47;21.10;93.50
55135;DHT22;41031;44.750;11.308;2023-07-02T02:56:14;21.10;93.60
55135;DHT22;41031;44.750;11.308;2023-07-02T02:58:41;21.10;93.60
55135;DHT22;41031;44.750;11.308;2023-07-02T03:01:09;21.10;93.60
55135;DHT22;41031;44.750;11.308;2023-07-02T03:03:39;21.00;93.50
55135;DHT22;41031;44.750;11.308;2023-07-02T03:06:13;21.00;93.50
55135;DHT22;41031;44.750;11.308;2023-07-02T03:08:42;21.00;93.60
55135;DHT22;41031;44.750;11.308;2023-07-02T03:11:10;21.00;93.60
55135;DHT22;41031;44.750;11.308;2023-07-02T03:13:37;20.90;93.70
55135;DHT22;41031;44.750;11.308;2023-07-02T03:16:04;20.90;93.80
55135;DHT22;41031;44.750;11.308;2023-07-02T03:18:32;21.00;93.90
55135;DHT22;41031;44.750;11.308;2023-07-02T03:20:59;21.00;93.70
55135;DHT22;41031;44.750;11.308;2023-07-02T03:23:26;21.00;93.40
55135;DHT22;41031;44.750;11.308;2023-07-02T03:25:53;20.90;93.10
55135;DHT22;41031;44.750;11.308;2023-07-02T03:28:20;20.90;93.10
55135;DHT22;41031;44.750;11.308;2023-07-02T03:30:47;20.90;93.20
55135;DHT22;41031;44.750;11.308;2023-07-02T03:33:18;20.80;93.20
55135;DHT22;41031;44.750;11.308;2023-07-02T03:35:45;20.80;93.60
55135;DHT22;41031;44.750;11.308;2023-07-02T03:38:12;20.70;93.40
55135;DHT22;41031;44.750;11.308;2023-07-02T03:40:39;20.70;93.60
55135;DHT22;41031;44.750;11.308;2023-07-02T03:43:07;20.70;93.80
55135;DHT22;41031;44.750;11.308;2023-07-02T03:45:35;20.70;93.90
55135;DHT22;41031;44.750;11.308;2023-07-02T03:48:02;20.70;94.00
55135;DHT22;41031;44.750;11.308;2023-07-02T03:50:29;20.70;94.00
55135;DHT22;41031;44.750;11.308;2023-07-02T03:52:56;20.80;94.10
55135;DHT22;41031;44.750;11.308;2023-07-02T03:55:23;20.80;94.10
55135;DHT22;41031;44.750;11.308;2023-07-02T03:57:50;20.80;94.10
55135;DHT22;41031;44.750;11.308;2023-07-02T04:00:17;20.80;94.00
55135;DHT22;41031;44.750;11.308;2023-07-02T04:02:44;20.80;94.00
55135;DHT22;41031;44.750;11.308;2023-07-02T04:05:12;20.80;94.00
55135;DHT22;41031;44.750;11.308;2023-07-02T04:07:39;20.80;94.00
55135;DHT22;41031;44.750;11.308;2023-07-02T04:10:06;20.80;94.00
55135;DHT22;41031;44.750;11.308;2023-07-02T04:12:34;20.90;94.30
55135;DHT22;41031;44.750;11.308;2023-07-02T04:15:01;20.90;94.00
55135;DHT22;41031;44.750;11.308;2023-07-02T04:17:29;20.90;94.10
55135;DHT22;41031;44.750;11.308;2023-07-02T04:20:02;20.90;94.10
55135;DHT22;41031;44.750;11.308;2023-07-02T04:22:33;21.00;94.20
55135;DHT22;41031;44.750;11.308;2023-07-02T04:25:00;21.10;94.20
55135;DHT22;41031;44.750;11.308;2023-07-02T04:27:37;21.10;94.20
55135;DHT22;41031;44.750;11.308;2023-07-02T04:30:17;21.20;94.30
55135;DHT22;41031;44.750;11.308;2023-07-02T04:32:44;21.30;94.30
55135;DHT22;41031;44.750;11.308;2023-07-02T04:35:11;21.40;94.30
55135;DHT22;41031;44.750;11.308;2023-07-02T04:37:41;21.50;94.30
55135;DHT22;41031;44.750;11.308;2023-07-02T04:40:08;21.60;94.20
55135;DHT22;41031;44.750;11.308;2023-07-02T04:42:39;21.60;94.10
55135;DHT22;41031;44.750;11.308;2023-07-02T04:45:07;21.70;94.10
55135;DHT22;41031;44.750;11.308;2023-07-02T04:47:35;21.80;94.10
55135;DHT22;41031;44.750;11.308;2023-07-02T04:50:04;21.80;94.00
55135;DHT22;41031;44.750;11.308;2023-07-02T04:52:32;21.90;94.00
55135;DHT22;41031;44.750;11.308;2023-07-02T04:54:59;22.00;93.90
55135;DHT22;41031;44.750;11.308;2023-07-02T04:57:26;22.00;93.80
55135;DHT22;41031;44.750;11.308;2023-07-02T04:59:57;22.10;93.80
55135;DHT22;41031;44.750;11.308;2023-07-02T05:02:27;22.20;93.80
55135;DHT22;41031;44.750;11.308;2023-07-02T05:04:54;22.20;93.80
55135;DHT22;41031;44.750;11.308;2023-07-02T05:07:21;22.30;93.70
55135;DHT22;41031;44.750;11.308;2023-07-02T05:09:48;22.30;93.50
55135;DHT22;41031;44.750;11.308;2023-07-02T05:12:16;22.50;93.50
55135;DHT22;41031;44.750;11.308;2023-07-02T05:14:43;22.50;93.40
55135;DHT22;41031;44.750;11.308;2023-07-02T05:17:10;22.60;93.30
55135;DHT22;41031;44.750;11.308;2023-07-02T05:19:41;22.70;93.20
55135;DHT22;41031;44.750;11.308;2023-07-02T05:22:09;22.80;93.10
55135;DHT22;41031;44.750;11.308;2023-07-02T05:24:36;22.90;92.90
55135;DHT22;41031;44.750;11.308;2023-07-02T05:27:06;23.00;92.80
55135;DHT22;41031;44.750;11.308;2023-07-02T05:29:33;23.10;92.60
55135;DHT22;41031;44.750;11.308;2023-07-02T05:32:00;23.20;92.30
55135;DHT22;41031;44.750;11.308;2023-07-02T05:34:27;23.30;92.20
55135;DHT22;41031;44.750;11.308;2023-07-02T05:36:54;23.40;92.10
55135;DHT22;41031;44.750;11.308;2023-07-02T05:39:21;23.50;92.00
55135;DHT22;41031;44.750;11.308;2023-07-02T05:41:49;23.70;92.00
55135;DHT22;41031;44.750;11.308;2023-07-02T05:44:16;23.70;91.90
55135;DHT22;41031;44.750;11.308;2023-07-02T05:46:43;23.90;91.70
55135;DHT22;41031;44.750;11.308;2023-07-02T05:49:10;24.10;91.40
55135;DHT22;41031;44.750;11.308;2023-07-02T05:51:37;24.20;91.10
55135;DHT22;41031;44.750;11.308;2023-07-02T05:54:07;24.30;91.00
55135;DHT22;41031;44.750;11.308;2023-07-02T05:56:34;24.50;90.90
55135;DHT22;41031;44.750;11.308;2023-07-02T05:59:01;24.60;90.60
55135;DHT22;41031;44.750;11.308;2023-07-02T06:01:28;24.70;90.40
55135;DHT22;41031;44.750;11.308;2023-07-02T06:03:55;24.90;90.20
55135;DHT22;41031;44.750;11.308;2023-07-02T06:06:22;25.00;89.90
55135;DHT22;41031;44.750;11.308;2023-07-02T06:08:51;25.00;89.80
55135;DHT22;41031;44.750;11.308;2023-07-02T06:11:20;25.20;89.40
55135;DHT22;41031;44.750;11.308;2023-07-02T06:13:50;25.30;88.30
55135;DHT22;41031;44.750;11.308;2023-07-02T06:16:17;25.40;87.90
55135;DHT22;41031;44.750;11.308;2023-07-02T06:18:45;25.50;87.10
55135;DHT22;41031;44.750;11.308;2023-07-02T06:21:12;25.60;86.90
55135;DHT22;41031;44.750;11.308;2023-07-02T06:23:43;25.70;87.10
55135;DHT22;41031;44.750;11.308;2023-07-02T06:26:10;25.80;86.60
55135;DHT22;41031;44.750;11.308;2023-07-02T06:28:38;25.90;85.60
55135;DHT22;41031;44.750;11.308;2023-07-02T06:31:05;26.00;85.20
55135;DHT22;41031;44.750;11.308;2023-07-02T06:33:32;26.10;85.00
55135;DHT22;41031;44.750;11.308;2023-07-02T06:36:01;26.20;84.50
55135;DHT22;41031;44.750;11.308;2023-07-02T06:38:28;26.30;83.50
55135;DHT22;41031;44.750;11.308;2023-07-02T06:40:56;26.30;83.20
55135;DHT22;41031;44.750;11.308;2023-07-02T06:43:23;26.40;83.50
55135;DHT22;41031;44.750;11.308;2023-07-02T06:45:50;26.50;83.70
55135;DHT22;41031;44.750;11.308;2023-07-02T06:48:17;26.70;83.10
55135;DHT22;41031;44.750;11.308;2023-07-02T06:50:48;26.80;82.50
55135;DHT22;41031;44.750;11.308;2023-07-02T06:53:16;26.90;82.30
55135;DHT22;41031;44.750;11.308;2023-07-02T06:55:43;27.00;81.90
55135;DHT22;41031;44.750;11.308;2023-07-02T06:58:10;27.10;81.80
55135;DHT22;41031;44.750;11.308;2023-07-02T07:00:37;27.20;81.60
55135;DHT22;41031;44.750;11.308;2023-07-02T07:03:04;27.40;81.80
55135;DHT22;41031;44.750;11.308;2023-07-02T07:05:32;27.60;81.60
55135;DHT22;41031;44.750;11.308;2023-07-02T07:08:00;27.70;81.30
55135;DHT22;41031;44.750;11.308;2023-07-02T07:10:29;27.90;81.20
55135;DHT22;41031;44.750;11.308;2023-07-02T07:13:03;28.10;79.60
55135;DHT22;41031;44.750;11.308;2023-07-02T07:15:33;28.10;79.30
55135;DHT22;41031;44.750;11.308;2023-07-02T07:18:02;28.20;78.90
55135;DHT22;41031;44.750;11.308;2023-07-02T07:20:30;28.30;79.70
55135;DHT22;41031;44.750;11.308;2023-07-02T07:22:57;28.50;78.80
55135;DHT22;41031;44.750;11.308;2023-07-02T07:25:27;28.60;77.30
55135;DHT22;41031;44.750;11.308;2023-07-02T07:27:54;28.60;76.10
55135;DHT22;41031;44.750;11.308;2023-07-02T07:30:21;28.80;76.50
55135;DHT22;41031;44.750;11.308;2023-07-02T07:32:52;28.90;76.80
55135;DHT22;41031;44.750;11.308;2023-07-02T07:35:22;29.10;76.30
55135;DHT22;41031;44.750;11.308;2023-07-02T07:37:50;29.20;75.50
55135;DHT22;41031;44.750;11.308;2023-07-02T07:40:17;29.30;73.90
55135;DHT22;41031;44.750;11.308;2023-07-02T07:42:44;29.40;73.90
55135;DHT22;41031;44.750;11.308;2023-07-02T07:45:13;29.40;74.10
55135;DHT22;41031;44.750;11.308;2023-07-02T07:47:40;29.60;73.90
55135;DHT22;41031;44.750;11.308;2023-07-02T07:50:08;29.70;73.50
55135;DHT22;41031;44.750;11.308;2023-07-02T07:52:39;29.80;73.40
55135;DHT22;41031;44.750;11.308;2023-07-02T07:55:07;30.00;73.10
55135;DHT22;41031;44.750;11.308;2023-07-02T07:57:37;30.20;71.70
55135;DHT22;41031;44.750;11.308;2023-07-02T08:00:05;30.20;70.70
55135;DHT22;41031;44.750;11.308;2023-07-02T08:02:48;30.30;70.40
55135;DHT22;41031;44.750;11.308;2023-07-02T08:05:15;30.30;70.60
55135;DHT22;41031;44.750;11.308;2023-07-02T08:07:42;30.40;70.90
55135;DHT22;41031;44.750;11.308;2023-07-02T08:10:10;30.60;70.40
55135;DHT22;41031;44.750;11.308;2023-07-02T08:12:37;30.70;69.60
55135;DHT22;41031;44.750;11.308;2023-07-02T08:15:05;30.80;69.10
55135;DHT22;41031;44.750;11.308;2023-07-02T08:17:32;31.00;68.90
55135;DHT22;41031;44.750;11.308;2023-07-02T08:19:59;31.10;68.40
55135;DHT22;41031;44.750;11.308;2023-07-02T08:22:27;31.20;68.50
55135;DHT22;41031;44.750;11.308;2023-07-02T08:24:54;31.30;68.10
55135;DHT22;41031;44.750;11.308;2023-07-02T08:27:21;31.40;67.40
55135;DHT22;41031;44.750;11.308;2023-07-02T08:29:49;31.50;67.00
55135;DHT22;41031;44.750;11.308;2023-07-02T08:32:19;31.60;65.70
55135;DHT22;41031;44.750;11.308;2023-07-02T08:34:46;31.70;65.40
55135;DHT22;41031;44.750;11.308;2023-07-02T08:37:13;31.80;64.90
55135;DHT22;41031;44.750;11.308;2023-07-02T08:39:40;31.80;63.40
55135;DHT22;41031;44.750;11.308;2023-07-02T08:42:07;31.80;63.80
55135;DHT22;41031;44.750;11.308;2023-07-02T08:44:34;31.80;63.80
55135;DHT22;41031;44.750;11.308;2023-07-02T08:47:02;31.70;63.90
55135;DHT22;41031;44.750;11.308;2023-07-02T08:49:30;31.80;64.80
55135;DHT22;41031;44.750;11.308;2023-07-02T08:51:58;31.80;64.70
55135;DHT22;41031;44.750;11.308;2023-07-02T08:54:25;31.90;64.30
55135;DHT22;41031;44.750;11.308;2023-07-02T08:56:52;32.00;64.80
55135;DHT22;41031;44.750;11.308;2023-07-02T08:59:19;32.20;64.30
55135;DHT22;41031;44.750;11.308;2023-07-02T09:01:47;32.30;63.50
55135;DHT22;41031;44.750;11.308;2023-07-02T09:04:19;32.40;62.90
55135;DHT22;41031;44.750;11.308;2023-07-02T09:06:47;32.50;62.20
55135;DHT22;41031;44.750;11.308;2023-07-02T09:09:15;32.60;61.70
55135;DHT22;41031;44.750;11.308;2023-07-02T09:11:49;32.60;62.00
55135;DHT22;41031;44.750;11.308;2023-07-02T09:14:27;32.70;60.20
55135;DHT22;41031;44.750;11.308;2023-07-02T09:17:07;32.80;59.30
55135;DHT22;41031;44.750;11.308;2023-07-02T09:19:36;32.80;59.90
55135;DHT22;41031;44.750;11.308;2023-07-02T09:22:14;32.90;59.70
55135;DHT22;41031;44.750;11.308;2023-07-02T09:24:51;33.00;59.60
55135;DHT22;41031;44.750;11.308;2023-07-02T09:27:20;33.00;59.20
55135;DHT22;41031;44.750;11.308;2023-07-02T09:29:51;33.10;59.10
55135;DHT22;41031;44.750;11.308;2023-07-02T09:32:26;33.10;59.70
55135;DHT22;41031;44.750;11.308;2023-07-02T09:34:55;33.10;60.00
55135;DHT22;41031;44.750;11.308;2023-07-02T09:37:25;33.20;59.10
55135;DHT22;41031;44.750;11.308;2023-07-02T09:39:53;33.30;58.30
55135;DHT22;41031;44.750;11.308;2023-07-02T09:42:25;33.30;56.50
55135;DHT22;41031;44.750;11.308;2023-07-02T09:44:52;33.30;57.30
55135;DHT22;41031;44.750;11.308;2023-07-02T09:47:22;33.30;56.60
55135;DHT22;41031;44.750;11.308;2023-07-02T09:52:24;33.30;57.20
55135;DHT22;41031;44.750;11.308;2023-07-02T09:54:52;33.40;57.40
55135;DHT22;41031;44.750;11.308;2023-07-02T09:57:19;33.50;57.00
55135;DHT22;41031;44.750;11.308;2023-07-02T09:59:46;33.60;55.90
55135;DHT22;41031;44.750;11.308;2023-07-02T10:02:14;33.70;55.30
55135;DHT22;41031;44.750;11.308;2023-07-02T10:04:45;33.80;55.80
55135;DHT22;41031;44.750;11.308;2023-07-02T10:07:26;33.80;55.20
55135;DHT22;41031;44.750;11.308;2023-07-02T10:09:53;34.00;55.90
55135;DHT22;41031;44.750;11.308;2023-07-02T10:12:21;34.00;56.60
55135;DHT22;41031;44.750;11.308;2023-07-02T10:14:51;34.20;56.60
55135;DHT22;41031;44.750;11.308;2023-07-02T10:17:31;34.30;55.40
55135;DHT22;41031;44.750;11.308;2023-07-02T10:20:02;34.40;53.40
55135;DHT22;41031;44.750;11.308;2023-07-02T10:22:48;34.50;52.60
55135;DHT22;41031;44.750;11.308;2023-07-02T10:25:30;34.50;53.00
55135;DHT22;41031;44.750;11.308;2023-07-02T10:27:59;34.60;53.20
55135;DHT22;41031;44.750;11.308;2023-07-02T10:30:35;34.60;52.60
55135;DHT22;41031;44.750;11.308;2023-07-02T10:33:09;34.60;53.50
55135;DHT22;41031;44.750;11.308;2023-07-02T10:35:37;34.60;53.60
55135;DHT22;41031;44.750;11.308;2023-07-02T10:38:12;34.60;54.20
55135;DHT22;41031;44.750;11.308;2023-07-02T10:40:42;34.60;55.00
55135;DHT22;41031;44.750;11.308;2023-07-02T10:43:09;34.70;54.80
55135;DHT22;41031;44.750;11.308;2023-07-02T10:45:37;34.80;54.00
55135;DHT22;41031;44.750;11.308;2023-07-02T10:48:13;34.90;53.40
55135;DHT22;41031;44.750;11.308;2023-07-02T10:50:40;35.00;52.80
55135;DHT22;41031;44.750;11.308;2023-07-02T10:53:15;35.00;52.10
55135;DHT22;41031;44.750;11.308;2023-07-02T10:55:42;35.00;51.40
55135;DHT22;41031;44.750;11.308;2023-07-02T10:58:11;34.90;51.70
55135;DHT22;41031;44.750;11.308;2023-07-02T11:00:51;34.80;51.10
55135;DHT22;41031;44.750;11.308;2023-07-02T11:03:26;34.70;52.00
55135;DHT22;41031;44.750;11.308;2023-07-02T11:05:54;34.60;52.00
55135;DHT22;41031;44.750;11.308;2023-07-02T11:08:21;34.50;52.80
55135;DHT22;41031;44.750;11.308;2023-07-02T11:11:06;34.50;53.30
55135;DHT22;41031;44.750;11.308;2023-07-02T11:13:47;34.60;52.90
55135;DHT22;41031;44.750;11.308;2023-07-02T11:16:26;34.70;52.70
55135;DHT22;41031;44.750;11.308;2023-07-02T11:19:14;34.70;51.40
55135;DHT22;41031;44.750;11.308;2023-07-02T11:21:52;34.80;51.70
55135;DHT22;41031;44.750;11.308;2023-07-02T11:27:00;34.90;51.50
55135;DHT22;41031;44.750;11.308;2023-07-02T11:29:29;34.90;52.00
55135;DHT22;41031;44.750;11.308;2023-07-02T11:32:10;35.00;51.10
55135;DHT22;41031;44.750;11.308;2023-07-02T11:34:39;34.90;51.70
55135;DHT22;41031;44.750;11.308;2023-07-02T11:37:06;34.90;50.30
55135;DHT22;41031;44.750;11.308;2023-07-02T11:39:33;34.80;51.10
55135;DHT22;41031;44.750;11.308;2023-07-02T11:42:03;34.70;52.50
55135;DHT22;41031;44.750;11.308;2023-07-02T11:44:30;34.80;52.50
55135;DHT22;41031;44.750;11.308;2023-07-02T11:46:57;34.90;51.50
55135;DHT22;41031;44.750;11.308;2023-07-02T11:49:24;35.00;50.70
55135;DHT22;41031;44.750;11.308;2023-07-02T11:51:51;35.00;50.50
55135;DHT22;41031;44.750;11.308;2023-07-02T11:54:18;35.00;50.70
55135;DHT22;41031;44.750;11.308;2023-07-02T11:56:46;35.10;51.80
55135;DHT22;41031;44.750;11.308;2023-07-02T11:59:13;35.20;52.60
55135;DHT22;41031;44.750;11.308;2023-07-02T12:01:40;35.40;52.60
55135;DHT22;41031;44.750;11.308;2023-07-02T12:04:10;35.40;51.70
55135;DHT22;41031;44.750;11.308;2023-07-02T12:06:39;35.30;51.60
55135;DHT22;41031;44.750;11.308;2023-07-02T12:09:06;35.10;50.80
55135;DHT22;41031;44.750;11.308;2023-07-02T12:11:35;34.90;50.30
55135;DHT22;41031;44.750;11.308;2023-07-02T12:14:02;34.70;50.00
55135;DHT22;41031;44.750;11.308;2023-07-02T12:16:29;34.70;50.20
55135;DHT22;41031;44.750;11.308;2023-07-02T12:18:56;34.70;49.80
55135;DHT22;41031;44.750;11.308;2023-07-02T12:21:23;34.60;50.00
55135;DHT22;41031;44.750;11.308;2023-07-02T12:23:50;34.40;51.00
55135;DHT22;41031;44.750;11.308;2023-07-02T12:26:17;34.50;51.60
55135;DHT22;41031;44.750;11.308;2023-07-02T12:28:44;34.60;51.00
55135;DHT22;41031;44.750;11.308;2023-07-02T12:31:14;34.70;51.40
55135;DHT22;41031;44.750;11.308;2023-07-02T12:33:41;34.90;51.30
55135;DHT22;41031;44.750;11.308;2023-07-02T12:36:10;35.00;50.40
55135;DHT22;41031;44.750;11.308;2023-07-02T12:38:38;35.10;50.60
55135;DHT22;41031;44.750;11.308;2023-07-02T12:41:05;35.30;50.90
55135;DHT22;41031;44.750;11.308;2023-07-02T12:43:32;35.40;51.10
55135;DHT22;41031;44.750;11.308;2023-07-02T12:46:01;35.60;51.10
55135;DHT22;41031;44.750;11.308;2023-07-02T12:48:28;35.60;49.30
55135;DHT22;41031;44.750;11.308;2023-07-02T12:50:56;35.60;47.60
55135;DHT22;41031;44.750;11.308;2023-07-02T12:53:25;35.50;48.70
55135;DHT22;41031;44.750;11.308;2023-07-02T12:55:53;35.50;48.20
55135;DHT22;41031;44.750;11.308;2023-07-02T12:58:20;35.40;48.60
55135;DHT22;41031;44.750;11.308;2023-07-02T13:00:47;35.50;48.90
55135;DHT22;41031;44.750;11.308;2023-07-02T13:03:17;35.50;49.80
55135;DHT22;41031;44.750;11.308;2023-07-02T13:05:47;35.60;49.70
55135;DHT22;41031;44.750;11.308;2023-07-02T13:08:17;35.70;49.10
55135;DHT22;41031;44.750;11.308;2023-07-02T13:10:44;35.80;48.90
55135;DHT22;41031;44.750;11.308;2023-07-02T13:13:11;35.80;48.20
55135;DHT22;41031;44.750;11.308;2023-07-02T13:15:49;35.80;48.20
55135;DHT22;41031;44.750;11.308;2023-07-02T13:18:17;35.70;48.60
55135;DHT22;41031;44.750;11.308;2023-07-02T13:20:44;35.60;49.00
55135;DHT22;41031;44.750;11.308;2023-07-02T13:23:11;35.40;48.20
55135;DHT22;41031;44.750;11.308;2023-07-02T13:25:38;35.40;48.60
55135;DHT22;41031;44.750;11.308;2023-07-02T13:28:05;35.30;47.20
55135;DHT22;41031;44.750;11.308;2023-07-02T13:30:32;35.00;47.00
55135;DHT22;41031;44.750;11.308;2023-07-02T13:33:00;34.70;48.80
55135;DHT22;41031;44.750;11.308;2023-07-02T13:35:29;34.50;49.90
55135;DHT22;41031;44.750;11.308;2023-07-02T13:37:56;34.40;50.30
55135;DHT22;41031;44.750;11.308;2023-07-02T13:40:24;34.40;51.00
55135;DHT22;41031;44.750;11.308;2023-07-02T13:42:54;34.20;51.00
55135;DHT22;41031;44.750;11.308;2023-07-02T13:45:22;34.00;50.80
55135;DHT22;41031;44.750;11.308;2023-07-02T13:47:49;33.90;52.00
55135;DHT22;41031;44.750;11.308;2023-07-02T13:50:17;33.90;52.50
55135;DHT22;41031;44.750;11.308;2023-07-02T13:52:44;33.90;51.70
55135;DHT22;41031;44.750;11.308;2023-07-02T13:55:13;33.90;51.70
55135;DHT22;41031;44.750;11.308;2023-07-02T13:57:40;34.00;51.80
55135;DHT22;41031;44.750;11.308;2023-07-02T14:00:07;34.10;51.40
55135;DHT22;41031;44.750;11.308;2023-07-02T14:02:35;34.10;51.10
55135;DHT22;41031;44.750;11.308;2023-07-02T14:05:03;34.00;51.00
55135;DHT22;41031;44.750;11.308;2023-07-02T14:07:30;33.90;51.50
55135;DHT22;41031;44.750;11.308;2023-07-02T14:09:57;33.80;51.60
55135;DHT22;41031;44.750;11.308;2023-07-02T14:12:24;33.80;50.90
55135;DHT22;41031;44.750;11.308;2023-07-02T14:14:51;33.80;51.30
55135;DHT22;41031;44.750;11.308;2023-07-02T14:17:18;33.70;50.70
55135;DHT22;41031;44.750;11.308;2023-07-02T14:19:45;33.70;51.50
55135;DHT22;41031;44.750;11.308;2023-07-02T14:22:12;33.70;51.40
55135;DHT22;41031;44.750;11.308;2023-07-02T14:24:39;33.70;51.40
55135;DHT22;41031;44.750;11.308;2023-07-02T14:27:06;33.70;50.80
55135;DHT22;41031;44.750;11.308;2023-07-02T14:29:34;33.70;51.90
55135;DHT22;41031;44.750;11.308;2023-07-02T14:32:01;33.70;52.30
55135;DHT22;41031;44.750;11.308;2023-07-02T14:34:28;33.70;52.80
55135;DHT22;41031;44.750;11.308;2023-07-02T14:36:56;33.70;52.50
55135;DHT22;41031;44.750;11.308;2023-07-02T14:39:23;33.70;52.60
55135;DHT22;41031;44.750;11.308;2023-07-02T14:41:50;33.70;52.90
55135;DHT22;41031;44.750;11.308;2023-07-02T14:44:17;33.70;51.80
55135;DHT22;41031;44.750;11.308;2023-07-02T14:46:44;33.70;51.40
55135;DHT22;41031;44.750;11.308;2023-07-02T14:49:12;33.70;51.90
55135;DHT22;41031;44.750;11.308;2023-07-02T14:51:38;33.60;52.10
55135;DHT22;41031;44.750;11.308;2023-07-02T14:54:06;33.50;52.50
55135;DHT22;41031;44.750;11.308;2023-07-02T14:56:34;33.40;52.40
55135;DHT22;41031;44.750;11.308;2023-07-02T14:59:03;33.30;52.40
55135;DHT22;41031;44.750;11.308;2023-07-02T15:01:30;33.30;51.90
55135;DHT22;41031;44.750;11.308;2023-07-02T15:03:57;33.30;50.90
55135;DHT22;41031;44.750;11.308;2023-07-02T15:06:25;33.20;51.10
55135;DHT22;41031;44.750;11.308;2023-07-02T15:08:56;33.20;51.20
55135;DHT22;41031;44.750;11.308;2023-07-02T15:11:23;33.20;51.00
55135;DHT22;41031;44.750;11.308;2023-07-02T15:13:50;33.10;50.80
55135;DHT22;41031;44.750;11.308;2023-07-02T15:16:17;33.10;50.90
55135;DHT22;41031;44.750;11.308;2023-07-02T15:18:47;33.00;51.40
55135;DHT22;41031;44.750;11.308;2023-07-02T15:21:14;33.00;51.00
55135;DHT22;41031;44.750;11.308;2023-07-02T15:23:43;33.00;51.30
55135;DHT22;41031;44.750;11.308;2023-07-02T15:26:10;32.90;52.00
55135;DHT22;41031;44.750;11.308;2023-07-02T15:28:37;32.90;52.60